sensor_id;sensor_type;location;lat;lon;timestamp;P1;durP1;ratioP1;P2;durP2;ratioP2
11238;SDS011;5677;48.488;13.436;2023-12-20T00:02:11;2.60;;;2.40;;
11238;SDS011;5677;48.488;13.436;2023-12-20T00:04:38;2.47;;;2.27;;
11238;SDS011;5677;48.488;13.436;2023-12-20T00:07:05;2.63;;;2.43;;
11238;SDS011;5677;48.488;13.436;2023-12-20T00:09:31;3.00;;;2.70;;
11238;SDS011;5677;48.488;13.436;2023-12-20T00:11:59;2.40;;;2.20;;
11238;SDS011;5677;48.488;13.436;2023-12-20T00:14:26;2.80;;;2.47;;
11238;SDS011;5677;48.488;13.436;2023-12-20T00:16:53;2.53;;;2.33;;
11238;SDS011;5677;48.488;13.436;2023-12-20T00:19:20;3.07;;;2.80;;
11238;SDS011;5677;48.488;13.436;2023-12-20T00:21:47;2.50;;;2.30;;
11238;SDS011;5677;48.488;13.436;2023-12-20T00:24:14;2.57;;;2.37;;
11238;SDS011;5677;48.488;13.436;2023-12-20T00:26:41;3.53;;;2.67;;
11238;SDS011;5677;48.488;13.436;2023-12-20T00:29:09;2.73;;;2.30;;
11238;SDS011;5677;48.488;13.436;2023-12-20T00:31:36;2.77;;;2.57;;
11238;SDS011;5677;48.488;13.436;2023-12-20T00:34:03;2.90;;;2.60;;
11238;SDS011;5677;48.488;13.436;2023-12-20T00:36:30;3.00;;;2.80;;
11238;SDS011;5677;48.488;13.436;2023-12-20T00:38:56;2.70;;;2.50;;
11238;SDS011;5677;48.488;13.436;2023-12-20T00:41:23;2.93;;;2.63;;
11238;SDS011;5677;48.488;13.436;2023-12-20T00:43:50;2.50;;;2.30;;
11238;SDS011;5677;48.488;13.436;2023-12-20T00:46:18;2.80;;;2.37;;
11238;SDS011;5677;48.488;13.436;2023-12-20T00:48:44;3.00;;;2.63;;
11238;SDS011;5677;48.488;13.436;2023-12-20T00:51:11;2.60;;;2.40;;
11238;SDS011;5677;48.488;13.436;2023-12-20T00:53:38;3.13;;;2.83;;
11238;SDS011;5677;48.488;13.436;2023-12-20T00:56:05;2.30;;;2.10;;
11238;SDS011;5677;48.488;13.436;2023-12-20T00:58:32;2.70;;;2.40;;
11238;SDS011;5677;48.488;13.436;2023-12-20T01:00:59;3.43;;;3.13;;
11238;SDS011;5677;48.488;13.436;2023-12-20T01:03:27;2.63;;;2.43;;
11238;SDS011;5677;48.488;13.436;2023-12-20T01:05:53;2.50;;;2.30;;
11238;SDS011;5677;48.488;13.436;2023-12-20T01:08:20;2.50;;;2.30;;
11238;SDS011;5677;48.488;13.436;2023-12-20T01:10:47;2.40;;;2.20;;
11238;SDS011;5677;48.488;13.436;2023-12-20T01:13:14;2.60;;;2.40;;
11238;SDS011;5677;48.488;13.436;2023-12-20T01:15:40;2.97;;;2.60;;
11238;SDS011;5677;48.488;13.436;2023-12-20T01:18:07;2.40;;;2.20;;
11238;SDS011;5677;48.488;13.436;2023-12-20T01:20:35;2.63;;;2.43;;
11238;SDS011;5677;48.488;13.436;2023-12-20T01:23:02;3.03;;;2.70;;
11238;SDS011;5677;48.488;13.436;2023-12-20T01:25:29;2.77;;;2.57;;
11238;SDS011;5677;48.488;13.436;2023-12-20T01:27:56;2.40;;;2.20;;
11238;SDS011;5677;48.488;13.436;2023-12-20T01:30:22;2.70;;;2.50;;
11238;SDS011;5677;48.488;13.436;2023-12-20T01:32:49;3.00;;;2.30;;
11238;SDS011;5677;48.488;13.436;2023-12-20T01:35:16;2.53;;;2.33;;
11238;SDS011;5677;48.488;13.436;2023-12-20T01:37:44;2.67;;;2.47;;
11238;SDS011;5677;48.488;13.436;2023-12-20T01:40:11;2.50;;;2.30;;
11238;SDS011;5677;48.488;13.436;2023-12-20T01:42:38;2.37;;;2.17;;
11238;SDS011;5677;48.488;13.436;2023-12-20T01:45:05;2.50;;;2.30;;
11238;SDS011;5677;48.488;13.436;2023-12-20T01:47:32;2.90;;;2.70;;
11238;SDS011;5677;48.488;13.436;2023-12-20T01:49:59;2.80;;;2.60;;
11238;SDS011;5677;48.488;13.436;2023-12-20T01:52:28;2.53;;;2.33;;
11238;SDS011;5677;48.488;13.436;2023-12-20T01:54:57;2.57;;;2.27;;
11238;SDS011;5677;48.488;13.436;2023-12-20T01:57:27;2.37;;;2.13;;
11238;SDS011;5677;48.488;13.436;2023-12-20T01:59:55;3.07;;;2.77;;
11238;SDS011;5677;48.488;13.436;2023-12-20T02:02:22;3.13;;;2.93;;
11238;SDS011;5677;48.488;13.436;2023-12-20T02:04:49;3.07;;;2.57;;
11238;SDS011;5677;48.488;13.436;2023-12-20T02:07:16;2.83;;;2.63;;
11238;SDS011;5677;48.488;13.436;2023-12-20T02:09:44;2.90;;;2.70;;
11238;SDS011;5677;48.488;13.436;2023-12-20T02:12:12;3.17;;;2.80;;
11238;SDS011;5677;48.488;13.436;2023-12-20T02:14:39;2.40;;;2.20;;
11238;SDS011;5677;48.488;13.436;2023-12-20T02:17:06;2.73;;;2.53;;
11238;SDS011;5677;48.488;13.436;2023-12-20T02:19:32;2.80;;;2.40;;
11238;SDS011;5677;48.488;13.436;2023-12-20T02:22:08;3.00;;;2.80;;
11238;SDS011;5677;48.488;13.436;2023-12-20T02:24:35;2.53;;;2.33;;
11238;SDS011;5677;48.488;13.436;2023-12-20T02:27:02;2.97;;;2.73;;
11238;SDS011;5677;48.488;13.436;2023-12-20T02:29:29;2.87;;;2.67;;
11238;SDS011;5677;48.488;13.436;2023-12-20T02:31:57;2.77;;;2.57;;
11238;SDS011;5677;48.488;13.436;2023-12-20T02:34:23;3.17;;;2.87;;
11238;SDS011;5677;48.488;13.436;2023-12-20T02:36:50;2.73;;;2.53;;
11238;SDS011;5677;48.488;13.436;2023-12-20T02:39:18;2.63;;;2.43;;
11238;SDS011;5677;48.488;13.436;2023-12-20T02:41:45;2.43;;;2.23;;
11238;SDS011;5677;48.488;13.436;2023-12-20T02:44:12;3.17;;;2.87;;
11238;SDS011;5677;48.488;13.436;2023-12-20T02:46:39;2.57;;;2.37;;
11238;SDS011;5677;48.488;13.436;2023-12-20T02:49:05;2.50;;;2.30;;
11238;SDS011;5677;48.488;13.436;2023-12-20T02:51:32;2.90;;;2.57;;
11238;SDS011;5677;48.488;13.436;2023-12-20T02:53:59;2.63;;;2.43;;
11238;SDS011;5677;48.488;13.436;2023-12-20T02:56:27;2.87;;;2.67;;
11238;SDS011;5677;48.488;13.436;2023-12-20T02:58:54;2.60;;;2.40;;
11238;SDS011;5677;48.488;13.436;2023-12-20T03:01:20;2.60;;;2.40;;
11238;SDS011;5677;48.488;13.436;2023-12-20T03:03:47;2.13;;;2.03;;
11238;SDS011;5677;48.488;13.436;2023-12-20T03:06:15;2.70;;;2.50;;
11238;SDS011;5677;48.488;13.436;2023-12-20T03:08:43;2.50;;;2.30;;
11238;SDS011;5677;48.488;13.436;2023-12-20T03:11:09;2.87;;;2.57;;
11238;SDS011;5677;48.488;13.436;2023-12-20T03:13:37;2.70;;;2.50;;
11238;SDS011;5677;48.488;13.436;2023-12-20T03:16:07;2.63;;;2.43;;
11238;SDS011;5677;48.488;13.436;2023-12-20T03:18:35;3.07;;;2.77;;
11238;SDS011;5677;48.488;13.436;2023-12-20T03:21:02;2.73;;;2.53;;
11238;SDS011;5677;48.488;13.436;2023-12-20T03:23:29;2.87;;;2.53;;
11238;SDS011;5677;48.488;13.436;2023-12-20T03:25:57;2.97;;;2.57;;
11238;SDS011;5677;48.488;13.436;2023-12-20T03:28:24;2.97;;;2.27;;
11238;SDS011;5677;48.488;13.436;2023-12-20T03:30:52;2.70;;;2.50;;
11238;SDS011;5677;48.488;13.436;2023-12-20T03:33:19;3.43;;;2.67;;
11238;SDS011;5677;48.488;13.436;2023-12-20T03:35:46;3.13;;;2.80;;
11238;SDS011;5677;48.488;13.436;2023-12-20T03:38:13;3.23;;;2.77;;
11238;SDS011;5677;48.488;13.436;2023-12-20T03:40:39;2.67;;;2.47;;
11238;SDS011;5677;48.488;13.436;2023-12-20T03:43:06;2.37;;;2.17;;
11238;SDS011;5677;48.488;13.436;2023-12-20T03:45:33;2.77;;;2.57;;
11238;SDS011;5677;48.488;13.436;2023-12-20T03:48:01;2.77;;;2.57;;
11238;SDS011;5677;48.488;13.436;2023-12-20T03:50:28;2.70;;;2.50;;
11238;SDS011;5677;48.488;13.436;2023-12-20T03:52:55;2.53;;;2.30;;
11238;SDS011;5677;48.488;13.436;2023-12-20T03:55:21;2.50;;;2.30;;
11238;SDS011;5677;48.488;13.436;2023-12-20T03:57:48;3.00;;;2.50;;
11238;SDS011;5677;48.488;13.436;2023-12-20T04:00:15;3.10;;;2.73;;
11238;SDS011;5677;48.488;13.436;2023-12-20T04:02:42;2.70;;;2.50;;
11238;SDS011;5677;48.488;13.436;2023-12-20T04:05:10;2.90;;;2.60;;
11238;SDS011;5677;48.488;13.436;2023-12-20T04:07:37;2.60;;;2.40;;
11238;SDS011;5677;48.488;13.436;2023-12-20T04:10:04;2.73;;;2.53;;
11238;SDS011;5677;48.488;13.436;2023-12-20T04:12:32;2.73;;;2.53;;
11238;SDS011;5677;48.488;13.436;2023-12-20T04:14:58;3.23;;;2.90;;
11238;SDS011;5677;48.488;13.436;2023-12-20T04:17:25;2.50;;;2.30;;
11238;SDS011;5677;48.488;13.436;2023-12-20T04:19:52;3.00;;;2.70;;
11238;SDS011;5677;48.488;13.436;2023-12-20T04:22:20;3.50;;;2.53;;
11238;SDS011;5677;48.488;13.436;2023-12-20T04:24:47;3.37;;;3.07;;
11238;SDS011;5677;48.488;13.436;2023-12-20T04:27:13;2.60;;;2.40;;
11238;SDS011;5677;48.488;13.436;2023-12-20T04:29:40;3.43;;;2.70;;
11238;SDS011;5677;48.488;13.436;2023-12-20T04:32:07;2.63;;;2.43;;
11238;SDS011;5677;48.488;13.436;2023-12-20T04:34:34;3.03;;;2.80;;
11238;SDS011;5677;48.488;13.436;2023-12-20T04:37:01;2.57;;;2.37;;
11238;SDS011;5677;48.488;13.436;2023-12-20T04:39:29;3.00;;;2.70;;
11238;SDS011;5677;48.488;13.436;2023-12-20T04:41:57;2.70;;;2.50;;
11238;SDS011;5677;48.488;13.436;2023-12-20T04:44:23;2.60;;;2.40;;
11238;SDS011;5677;48.488;13.436;2023-12-20T04:46:51;2.77;;;2.57;;
11238;SDS011;5677;48.488;13.436;2023-12-20T04:49:18;2.77;;;2.57;;
11238;SDS011;5677;48.488;13.436;2023-12-20T04:51:44;2.53;;;2.33;;
11238;SDS011;5677;48.488;13.436;2023-12-20T04:54:10;2.43;;;2.23;;
11238;SDS011;5677;48.488;13.436;2023-12-20T04:56:40;2.40;;;2.20;;
11238;SDS011;5677;48.488;13.436;2023-12-20T04:59:07;2.67;;;2.37;;
11238;SDS011;5677;48.488;13.436;2023-12-20T05:01:33;2.53;;;2.33;;
11238;SDS011;5677;48.488;13.436;2023-12-20T05:04:00;2.33;;;2.13;;
11238;SDS011;5677;48.488;13.436;2023-12-20T05:06:27;3.10;;;2.80;;
11238;SDS011;5677;48.488;13.436;2023-12-20T05:08:54;2.57;;;2.37;;
11238;SDS011;5677;48.488;13.436;2023-12-20T05:11:20;2.60;;;2.40;;
11238;SDS011;5677;48.488;13.436;2023-12-20T05:13:48;2.60;;;2.40;;
11238;SDS011;5677;48.488;13.436;2023-12-20T05:16:15;3.03;;;2.73;;
11238;SDS011;5677;48.488;13.436;2023-12-20T05:18:43;2.60;;;2.40;;
11238;SDS011;5677;48.488;13.436;2023-12-20T05:21:09;2.60;;;2.40;;
11238;SDS011;5677;48.488;13.436;2023-12-20T05:23:36;3.40;;;2.73;;
11238;SDS011;5677;48.488;13.436;2023-12-20T05:26:03;2.37;;;2.17;;
11238;SDS011;5677;48.488;13.436;2023-12-20T05:28:30;3.00;;;2.50;;
11238;SDS011;5677;48.488;13.436;2023-12-20T05:30:58;3.47;;;3.03;;
11238;SDS011;5677;48.488;13.436;2023-12-20T05:33:24;2.67;;;2.47;;
11238;SDS011;5677;48.488;13.436;2023-12-20T05:35:51;2.70;;;2.50;;
11238;SDS011;5677;48.488;13.436;2023-12-20T05:38:18;3.33;;;2.80;;
11238;SDS011;5677;48.488;13.436;2023-12-20T05:40:44;2.83;;;2.50;;
11238;SDS011;5677;48.488;13.436;2023-12-20T05:43:11;2.83;;;2.43;;
11238;SDS011;5677;48.488;13.436;2023-12-20T05:45:38;2.23;;;2.03;;
11238;SDS011;5677;48.488;13.436;2023-12-20T05:48:06;2.70;;;2.50;;
11238;SDS011;5677;48.488;13.436;2023-12-20T05:50:33;2.60;;;2.40;;
11238;SDS011;5677;48.488;13.436;2023-12-20T05:53:00;2.60;;;2.40;;
11238;SDS011;5677;48.488;13.436;2023-12-20T05:55:27;2.57;;;2.30;;
11238;SDS011;5677;48.488;13.436;2023-12-20T05:57:54;2.57;;;2.37;;
11238;SDS011;5677;48.488;13.436;2023-12-20T06:00:20;2.77;;;2.40;;
11238;SDS011;5677;48.488;13.436;2023-12-20T06:02:47;3.20;;;2.80;;
11238;SDS011;5677;48.488;13.436;2023-12-20T06:05:15;2.67;;;2.47;;
11238;SDS011;5677;48.488;13.436;2023-12-20T06:07:42;2.50;;;2.30;;
11238;SDS011;5677;48.488;13.436;2023-12-20T06:10:10;2.80;;;2.60;;
11238;SDS011;5677;48.488;13.436;2023-12-20T06:12:36;3.03;;;2.70;;
11238;SDS011;5677;48.488;13.436;2023-12-20T06:15:03;3.10;;;2.80;;
11238;SDS011;5677;48.488;13.436;2023-12-20T06:17:31;2.80;;;2.60;;
11238;SDS011;5677;48.488;13.436;2023-12-20T06:19:57;2.47;;;2.27;;
11238;SDS011;5677;48.488;13.436;2023-12-20T06:22:26;2.60;;;2.40;;
11238;SDS011;5677;48.488;13.436;2023-12-20T06:24:52;2.50;;;2.30;;
11238;SDS011;5677;48.488;13.436;2023-12-20T06:27:19;2.70;;;2.50;;
11238;SDS011;5677;48.488;13.436;2023-12-20T06:29:46;2.80;;;2.60;;
11238;SDS011;5677;48.488;13.436;2023-12-20T06:32:13;2.73;;;2.53;;
11238;SDS011;5677;48.488;13.436;2023-12-20T06:34:39;3.07;;;2.70;;
11238;SDS011;5677;48.488;13.436;2023-12-20T06:37:06;2.70;;;2.50;;
11238;SDS011;5677;48.488;13.436;2023-12-20T06:39:34;2.40;;;2.30;;
11238;SDS011;5677;48.488;13.436;2023-12-20T06:42:01;2.90;;;2.70;;
11238;SDS011;5677;48.488;13.436;2023-12-20T06:44:28;3.10;;;2.77;;
11238;SDS011;5677;48.488;13.436;2023-12-20T06:46:56;2.67;;;2.47;;
11238;SDS011;5677;48.488;13.436;2023-12-20T06:49:23;2.80;;;2.60;;
11238;SDS011;5677;48.488;13.436;2023-12-20T06:51:50;2.87;;;2.57;;
11238;SDS011;5677;48.488;13.436;2023-12-20T06:54:16;2.47;;;2.27;;
11238;SDS011;5677;48.488;13.436;2023-12-20T06:56:44;2.90;;;2.60;;
11238;SDS011;5677;48.488;13.436;2023-12-20T06:59:11;2.97;;;2.70;;
11238;SDS011;5677;48.488;13.436;2023-12-20T07:01:38;3.20;;;2.90;;
11238;SDS011;5677;48.488;13.436;2023-12-20T07:04:05;2.73;;;2.50;;
11238;SDS011;5677;48.488;13.436;2023-12-20T07:06:31;2.90;;;2.67;;
11238;SDS011;5677;48.488;13.436;2023-12-20T07:08:58;2.60;;;2.40;;
11238;SDS011;5677;48.488;13.436;2023-12-20T07:11:25;2.93;;;2.73;;
11238;SDS011;5677;48.488;13.436;2023-12-20T07:13:53;2.90;;;2.67;;
11238;SDS011;5677;48.488;13.436;2023-12-20T07:16:20;3.17;;;2.87;;
11238;SDS011;5677;48.488;13.436;2023-12-20T07:18:47;3.30;;;3.00;;
11238;SDS011;5677;48.488;13.436;2023-12-20T07:21:14;2.70;;;2.50;;
11238;SDS011;5677;48.488;13.436;2023-12-20T07:23:41;2.93;;;2.63;;
11238;SDS011;5677;48.488;13.436;2023-12-20T07:26:07;2.80;;;2.60;;
11238;SDS011;5677;48.488;13.436;2023-12-20T07:28:34;3.27;;;2.97;;
11238;SDS011;5677;48.488;13.436;2023-12-20T07:31:03;3.10;;;2.77;;
11238;SDS011;5677;48.488;13.436;2023-12-20T07:33:29;3.43;;;2.93;;
11238;SDS011;5677;48.488;13.436;2023-12-20T07:35:56;3.03;;;2.70;;
11238;SDS011;5677;48.488;13.436;2023-12-20T07:38:23;3.30;;;2.87;;
11238;SDS011;5677;48.488;13.436;2023-12-20T07:40:50;2.90;;;2.60;;
11238;SDS011;5677;48.488;13.436;2023-12-20T07:43:17;3.13;;;2.50;;
11238;SDS011;5677;48.488;13.436;2023-12-20T07:45:44;2.63;;;2.43;;
11238;SDS011;5677;48.488;13.436;2023-12-20T07:48:12;3.00;;;2.70;;
11238;SDS011;5677;48.488;13.436;2023-12-20T07:50:39;2.90;;;2.60;;
11238;SDS011;5677;48.488;13.436;2023-12-20T07:53:05;3.40;;;3.00;;
11238;SDS011;5677;48.488;13.436;2023-12-20T07:55:32;2.63;;;2.43;;
11238;SDS011;5677;48.488;13.436;2023-12-20T07:57:59;2.93;;;2.67;;
11238;SDS011;5677;48.488;13.436;2023-12-20T08:00:26;2.77;;;2.53;;
11238;SDS011;5677;48.488;13.436;2023-12-20T08:02:53;2.90;;;2.63;;
11238;SDS011;5677;48.488;13.436;2023-12-20T08:05:21;3.20;;;2.90;;
11238;SDS011;5677;48.488;13.436;2023-12-20T08:07:47;3.03;;;2.60;;
11238;SDS011;5677;48.488;13.436;2023-12-20T08:10:14;2.60;;;2.37;;
11238;SDS011;5677;48.488;13.436;2023-12-20T08:12:43;2.87;;;2.67;;
11238;SDS011;5677;48.488;13.436;2023-12-20T08:15:10;3.43;;;2.77;;
11238;SDS011;5677;48.488;13.436;2023-12-20T08:17:36;2.73;;;2.50;;
11238;SDS011;5677;48.488;13.436;2023-12-20T08:20:03;3.00;;;2.70;;
11238;SDS011;5677;48.488;13.436;2023-12-20T08:22:32;3.10;;;2.73;;
11238;SDS011;5677;48.488;13.436;2023-12-20T08:24:59;2.57;;;2.37;;
11238;SDS011;5677;48.488;13.436;2023-12-20T08:27:26;2.90;;;2.60;;
11238;SDS011;5677;48.488;13.436;2023-12-20T08:29:53;2.90;;;2.70;;
11238;SDS011;5677;48.488;13.436;2023-12-20T08:32:20;3.50;;;2.83;;
11238;SDS011;5677;48.488;13.436;2023-12-20T08:34:47;2.90;;;2.70;;
11238;SDS011;5677;48.488;13.436;2023-12-20T08:37:13;2.90;;;2.60;;
11238;SDS011;5677;48.488;13.436;2023-12-20T08:39:41;2.93;;;2.70;;
11238;SDS011;5677;48.488;13.436;2023-12-20T08:42:09;2.70;;;2.50;;
11238;SDS011;5677;48.488;13.436;2023-12-20T08:44:35;3.00;;;2.70;;
11238;SDS011;5677;48.488;13.436;2023-12-20T08:47:02;2.70;;;2.50;;
11238;SDS011;5677;48.488;13.436;2023-12-20T08:49:29;3.10;;;2.80;;
11238;SDS011;5677;48.488;13.436;2023-12-20T08:51:56;2.63;;;2.43;;
11238;SDS011;5677;48.488;13.436;2023-12-20T08:54:23;2.80;;;2.50;;
11238;SDS011;5677;48.488;13.436;2023-12-20T08:56:51;2.90;;;2.70;;
11238;SDS011;5677;48.488;13.436;2023-12-20T08:59:17;2.90;;;2.57;;
11238;SDS011;5677;48.488;13.436;2023-12-20T09:01:44;2.70;;;2.50;;
11238;SDS011;5677;48.488;13.436;2023-12-20T09:04:13;2.53;;;2.33;;
11238;SDS011;5677;48.488;13.436;2023-12-20T09:06:39;2.93;;;2.70;;
11238;SDS011;5677;48.488;13.436;2023-12-20T09:09:06;2.70;;;2.50;;
11238;SDS011;5677;48.488;13.436;2023-12-20T09:11:35;2.40;;;2.20;;
11238;SDS011;5677;48.488;13.436;2023-12-20T09:14:03;2.53;;;2.33;;
11238;SDS011;5677;48.488;13.436;2023-12-20T09:16:30;3.43;;;2.73;;
11238;SDS011;5677;48.488;13.436;2023-12-20T09:18:57;2.70;;;2.50;;
11238;SDS011;5677;48.488;13.436;2023-12-20T09:21:24;2.60;;;2.40;;
11238;SDS011;5677;48.488;13.436;2023-12-20T09:23:50;3.00;;;2.63;;
11238;SDS011;5677;48.488;13.436;2023-12-20T09:26:17;2.60;;;2.40;;
11238;SDS011;5677;48.488;13.436;2023-12-20T09:28:44;3.13;;;2.83;;
11238;SDS011;5677;48.488;13.436;2023-12-20T09:31:12;2.83;;;2.60;;
11238;SDS011;5677;48.488;13.436;2023-12-20T09:33:39;2.90;;;2.60;;
11238;SDS011;5677;48.488;13.436;2023-12-20T09:36:06;2.93;;;2.57;;
11238;SDS011;5677;48.488;13.436;2023-12-20T09:38:33;3.03;;;2.73;;
11238;SDS011;5677;48.488;13.436;2023-12-20T09:41:00;2.60;;;2.40;;
11238;SDS011;5677;48.488;13.436;2023-12-20T09:43:29;2.70;;;2.50;;
11238;SDS011;5677;48.488;13.436;2023-12-20T09:45:57;3.27;;;2.97;;
11238;SDS011;5677;48.488;13.436;2023-12-20T09:48:30;2.80;;;2.57;;
11238;SDS011;5677;48.488;13.436;2023-12-20T09:50:58;2.83;;;2.53;;
11238;SDS011;5677;48.488;13.436;2023-12-20T09:53:25;3.07;;;2.77;;
11238;SDS011;5677;48.488;13.436;2023-12-20T09:55:55;2.80;;;2.60;;
11238;SDS011;5677;48.488;13.436;2023-12-20T09:58:24;2.90;;;2.70;;
11238;SDS011;5677;48.488;13.436;2023-12-20T10:00:51;2.90;;;2.60;;
11238;SDS011;5677;48.488;13.436;2023-12-20T10:03:20;2.90;;;2.60;;
11238;SDS011;5677;48.488;13.436;2023-12-20T10:05:51;3.50;;;3.10;;
11238;SDS011;5677;48.488;13.436;2023-12-20T10:08:20;3.03;;;2.73;;
11238;SDS011;5677;48.488;13.436;2023-12-20T10:10:48;2.70;;;2.50;;
11238;SDS011;5677;48.488;13.436;2023-12-20T10:13:15;2.90;;;2.63;;
11238;SDS011;5677;48.488;13.436;2023-12-20T10:15:41;2.57;;;2.37;;
11238;SDS011;5677;48.488;13.436;2023-12-20T10:18:08;2.87;;;2.50;;
11238;SDS011;5677;48.488;13.436;2023-12-20T10:20:36;2.40;;;2.20;;
11238;SDS011;5677;48.488;13.436;2023-12-20T10:23:04;2.77;;;2.47;;
11238;SDS011;5677;48.488;13.436;2023-12-20T10:25:31;2.47;;;2.27;;
11238;SDS011;5677;48.488;13.436;2023-12-20T10:30:42;2.97;;;2.57;;
11238;SDS011;5677;48.488;13.436;2023-12-20T10:33:09;2.73;;;2.53;;
11238;SDS011;5677;48.488;13.436;2023-12-20T10:35:36;2.73;;;2.50;;
11238;SDS011;5677;48.488;13.436;2023-12-20T10:38:06;2.63;;;2.43;;
11238;SDS011;5677;48.488;13.436;2023-12-20T10:40:34;2.50;;;2.30;;
11238;SDS011;5677;48.488;13.436;2023-12-20T10:43:02;2.70;;;2.40;;
11238;SDS011;5677;48.488;13.436;2023-12-20T10:45:30;2.60;;;2.40;;
11238;SDS011;5677;48.488;13.436;2023-12-20T10:47:57;2.40;;;2.20;;
11238;SDS011;5677;48.488;13.436;2023-12-20T10:50:26;2.50;;;2.30;;
11238;SDS011;5677;48.488;13.436;2023-12-20T10:52:54;2.30;;;2.20;;
11238;SDS011;5677;48.488;13.436;2023-12-20T10:55:23;2.67;;;2.30;;
11238;SDS011;5677;48.488;13.436;2023-12-20T10:57:50;2.47;;;2.27;;
11238;SDS011;5677;48.488;13.436;2023-12-20T11:00:18;2.43;;;2.23;;
11238;SDS011;5677;48.488;13.436;2023-12-20T11:02:47;3.00;;;2.60;;
11238;SDS011;5677;48.488;13.436;2023-12-20T11:05:20;1.90;;;1.80;;
11238;SDS011;5677;48.488;13.436;2023-12-20T11:07:52;2.33;;;2.13;;
11238;SDS011;5677;48.488;13.436;2023-12-20T11:10:31;2.30;;;2.10;;
11238;SDS011;5677;48.488;13.436;2023-12-20T11:13:03;2.50;;;2.30;;
11238;SDS011;5677;48.488;13.436;2023-12-20T11:15:34;3.33;;;2.40;;
11238;SDS011;5677;48.488;13.436;2023-12-20T11:18:02;2.10;;;2.00;;
11238;SDS011;5677;48.488;13.436;2023-12-20T11:20:35;2.40;;;2.20;;
11238;SDS011;5677;48.488;13.436;2023-12-20T11:23:03;2.57;;;2.33;;
11238;SDS011;5677;48.488;13.436;2023-12-20T11:25:31;1.90;;;1.80;;
11238;SDS011;5677;48.488;13.436;2023-12-20T11:28:12;2.20;;;2.07;;
11238;SDS011;5677;48.488;13.436;2023-12-20T11:30:45;2.30;;;2.10;;
11238;SDS011;5677;48.488;13.436;2023-12-20T11:33:13;2.50;;;2.30;;
11238;SDS011;5677;48.488;13.436;2023-12-20T11:35:40;2.27;;;2.07;;
11238;SDS011;5677;48.488;13.436;2023-12-20T11:38:07;2.40;;;2.17;;
11238;SDS011;5677;48.488;13.436;2023-12-20T11:40:36;2.37;;;2.17;;
11238;SDS011;5677;48.488;13.436;2023-12-20T11:43:03;2.20;;;2.00;;
11238;SDS011;5677;48.488;13.436;2023-12-20T11:45:31;2.37;;;1.90;;
11238;SDS011;5677;48.488;13.436;2023-12-20T11:47:57;2.47;;;2.27;;
11238;SDS011;5677;48.488;13.436;2023-12-20T11:50:24;2.67;;;2.40;;
11238;SDS011;5677;48.488;13.436;2023-12-20T11:52:51;2.20;;;2.10;;
11238;SDS011;5677;48.488;13.436;2023-12-20T11:55:19;2.30;;;2.00;;
11238;SDS011;5677;48.488;13.436;2023-12-20T11:57:47;2.50;;;2.30;;
11238;SDS011;5677;48.488;13.436;2023-12-20T12:00:14;2.53;;;2.33;;
11238;SDS011;5677;48.488;13.436;2023-12-20T12:02:41;2.40;;;2.20;;
11238;SDS011;5677;48.488;13.436;2023-12-20T12:05:08;2.30;;;2.10;;
11238;SDS011;5677;48.488;13.436;2023-12-20T12:07:35;2.17;;;2.00;;
11238;SDS011;5677;48.488;13.436;2023-12-20T12:10:02;2.70;;;2.40;;
11238;SDS011;5677;48.488;13.436;2023-12-20T12:12:29;2.33;;;2.13;;
11238;SDS011;5677;48.488;13.436;2023-12-20T12:14:58;2.20;;;2.00;;
11238;SDS011;5677;48.488;13.436;2023-12-20T12:17:25;2.07;;;1.87;;
11238;SDS011;5677;48.488;13.436;2023-12-20T12:19:52;2.03;;;1.93;;
11238;SDS011;5677;48.488;13.436;2023-12-20T12:22:29;2.20;;;2.00;;
11238;SDS011;5677;48.488;13.436;2023-12-20T12:24:58;2.30;;;2.10;;
11238;SDS011;5677;48.488;13.436;2023-12-20T12:27:26;2.27;;;2.03;;
11238;SDS011;5677;48.488;13.436;2023-12-20T12:30:00;2.20;;;2.00;;
11238;SDS011;5677;48.488;13.436;2023-12-20T12:32:28;2.10;;;1.90;;
11238;SDS011;5677;48.488;13.436;2023-12-20T12:34:55;2.00;;;1.80;;
11238;SDS011;5677;48.488;13.436;2023-12-20T12:37:22;2.30;;;2.10;;
11238;SDS011;5677;48.488;13.436;2023-12-20T12:39:50;2.47;;;2.27;;
11238;SDS011;5677;48.488;13.436;2023-12-20T12:42:19;2.37;;;2.17;;
11238;SDS011;5677;48.488;13.436;2023-12-20T12:44:46;2.13;;;1.93;;
11238;SDS011;5677;48.488;13.436;2023-12-20T12:47:14;1.87;;;1.77;;
11238;SDS011;5677;48.488;13.436;2023-12-20T12:49:41;2.00;;;1.80;;
11238;SDS011;5677;48.488;13.436;2023-12-20T12:52:08;2.00;;;1.90;;
11238;SDS011;5677;48.488;13.436;2023-12-20T12:54:34;1.73;;;1.63;;
11238;SDS011;5677;48.488;13.436;2023-12-20T12:57:02;2.03;;;1.83;;
11238;SDS011;5677;48.488;13.436;2023-12-20T12:59:29;1.93;;;1.83;;
11238;SDS011;5677;48.488;13.436;2023-12-20T13:01:55;1.90;;;1.80;;
11238;SDS011;5677;48.488;13.436;2023-12-20T13:04:24;2.30;;;2.10;;
11238;SDS011;5677;48.488;13.436;2023-12-20T13:06:51;1.87;;;1.70;;
11238;SDS011;5677;48.488;13.436;2023-12-20T13:09:18;1.80;;;1.70;;
11238;SDS011;5677;48.488;13.436;2023-12-20T13:11:45;1.70;;;1.60;;
11238;SDS011;5677;48.488;13.436;2023-12-20T13:14:11;1.90;;;1.80;;
11238;SDS011;5677;48.488;13.436;2023-12-20T13:16:40;1.77;;;1.67;;
11238;SDS011;5677;48.488;13.436;2023-12-20T13:19:07;2.20;;;2.00;;
11238;SDS011;5677;48.488;13.436;2023-12-20T13:21:36;1.70;;;1.60;;
11238;SDS011;5677;48.488;13.436;2023-12-20T13:24:03;2.23;;;2.03;;
11238;SDS011;5677;48.488;13.436;2023-12-20T13:26:30;1.93;;;1.80;;
11238;SDS011;5677;48.488;13.436;2023-12-20T13:28:57;1.60;;;1.50;;
11238;SDS011;5677;48.488;13.436;2023-12-20T13:31:24;1.90;;;1.80;;
11238;SDS011;5677;48.488;13.436;2023-12-20T13:33:51;1.80;;;1.70;;
11238;SDS011;5677;48.488;13.436;2023-12-20T13:36:18;1.90;;;1.80;;
11238;SDS011;5677;48.488;13.436;2023-12-20T13:38:46;2.10;;;1.90;;
11238;SDS011;5677;48.488;13.436;2023-12-20T13:41:13;1.93;;;1.80;;
11238;SDS011;5677;48.488;13.436;2023-12-20T13:43:39;1.83;;;1.73;;
11238;SDS011;5677;48.488;13.436;2023-12-20T13:46:07;1.77;;;1.67;;
11238;SDS011;5677;48.488;13.436;2023-12-20T13:48:34;1.70;;;1.60;;
11238;SDS011;5677;48.488;13.436;2023-12-20T13:51:01;1.57;;;1.47;;
11238;SDS011;5677;48.488;13.436;2023-12-20T13:53:28;1.77;;;1.67;;
11238;SDS011;5677;48.488;13.436;2023-12-20T13:55:56;1.63;;;1.53;;
11238;SDS011;5677;48.488;13.436;2023-12-20T13:58:25;1.60;;;1.50;;
11238;SDS011;5677;48.488;13.436;2023-12-20T14:00:51;1.87;;;1.77;;
11238;SDS011;5677;48.488;13.436;2023-12-20T14:03:18;1.70;;;1.60;;
11238;SDS011;5677;48.488;13.436;2023-12-20T14:05:45;1.70;;;1.60;;
11238;SDS011;5677;48.488;13.436;2023-12-20T14:08:12;2.57;;;1.90;;
11238;SDS011;5677;48.488;13.436;2023-12-20T14:10:39;1.50;;;1.40;;
11238;SDS011;5677;48.488;13.436;2023-12-20T14:13:07;1.60;;;1.50;;
11238;SDS011;5677;48.488;13.436;2023-12-20T14:15:34;1.83;;;1.73;;
11238;SDS011;5677;48.488;13.436;2023-12-20T14:18:02;1.73;;;1.63;;
11238;SDS011;5677;48.488;13.436;2023-12-20T14:20:31;1.53;;;1.43;;
11238;SDS011;5677;48.488;13.436;2023-12-20T14:22:59;1.70;;;1.60;;
11238;SDS011;5677;48.488;13.436;2023-12-20T14:25:26;2.00;;;1.80;;
11238;SDS011;5677;48.488;13.436;2023-12-20T14:27:53;1.60;;;1.50;;
11238;SDS011;5677;48.488;13.436;2023-12-20T14:30:21;1.70;;;1.60;;
11238;SDS011;5677;48.488;13.436;2023-12-20T14:32:48;1.80;;;1.70;;
11238;SDS011;5677;48.488;13.436;2023-12-20T14:35:15;1.40;;;1.30;;
11238;SDS011;5677;48.488;13.436;2023-12-20T14:37:41;1.70;;;1.60;;
11238;SDS011;5677;48.488;13.436;2023-12-20T14:40:10;1.47;;;1.37;;
11238;SDS011;5677;48.488;13.436;2023-12-20T14:42:40;1.67;;;1.57;;
11238;SDS011;5677;48.488;13.436;2023-12-20T14:45:07;1.87;;;1.70;;
11238;SDS011;5677;48.488;13.436;2023-12-20T14:47:36;1.70;;;1.60;;
11238;SDS011;5677;48.488;13.436;2023-12-20T14:50:02;1.60;;;1.50;;
11238;SDS011;5677;48.488;13.436;2023-12-20T14:52:30;1.43;;;1.33;;